createdAt,value
2022-09-20T00:01:29.694Z,15.46
2022-09-20T00:03:58.807Z,15.43
2022-09-20T00:06:30.287Z,15.41
2022-09-20T00:08:57.511Z,15.41
2022-09-20T00:11:27.088Z,15.40
2022-09-20T00:13:56.676Z,15.38
2022-09-20T00:16:26.767Z,15.37
2022-09-20T00:18:55.968Z,15.37
2022-09-20T00:21:26.932Z,15.35
2022-09-20T00:23:54.337Z,15.36
2022-09-20T00:26:21.279Z,15.40
2022-09-20T00:28:48.684Z,15.41
2022-09-20T00:31:15.985Z,15.45
2022-09-20T00:34:01.926Z,15.47
2022-09-20T00:36:28.806Z,15.48
2022-09-20T00:39:00.790Z,15.48
2022-09-20T00:41:29.035Z,15.49
2022-09-20T00:43:55.811Z,15.49
2022-09-20T00:46:28.693Z,15.50
2022-09-20T00:49:02.189Z,15.49
2022-09-20T00:51:34.394Z,15.49
2022-09-20T00:54:04.353Z,15.49
2022-09-20T00:56:38.021Z,15.49
2022-09-20T00:59:27.741Z,15.49
2022-09-20T01:02:03.189Z,15.48
2022-09-20T01:04:30.666Z,15.47
2022-09-20T01:07:02.937Z,15.47
2022-09-20T01:09:29.587Z,15.45
2022-09-20T01:11:58.533Z,15.45
2022-09-20T01:14:26.982Z,15.45
2022-09-20T01:16:56.229Z,15.44
2022-09-20T01:19:32.393Z,15.45
2022-09-20T01:22:04.139Z,15.44
2022-09-20T01:24:50.841Z,15.42
2022-09-20T01:27:26.800Z,15.40
2022-09-20T01:30:06.386Z,15.37
2022-09-20T01:33:00.693Z,15.36
2022-09-20T01:35:28.970Z,15.34
2022-09-20T01:37:55.569Z,15.33
2022-09-20T01:40:37.801Z,15.32
2022-09-20T01:43:17.666Z,15.31
2022-09-20T01:45:50.209Z,15.31
2022-09-20T01:48:38.435Z,15.31
2022-09-20T01:51:35.085Z,15.32
2022-09-20T01:54:20.374Z,15.31
2022-09-20T01:57:08.422Z,15.31
2022-09-20T01:59:49.894Z,15.31
2022-09-20T02:02:19.628Z,15.30
2022-09-20T02:05:02.109Z,15.29
2022-09-20T02:07:57.250Z,15.29
2022-09-20T02:10:29.687Z,15.30
2022-09-20T02:13:01.948Z,15.28
2022-09-20T02:15:53.171Z,15.28
2022-09-20T02:18:51.983Z,15.29
2022-09-20T02:21:40.269Z,15.30
2022-09-20T02:24:31.183Z,15.31
2022-09-20T02:27:35.389Z,15.31
2022-09-20T02:30:28.727Z,15.31
2022-09-20T02:33:24.030Z,15.29
2022-09-20T02:35:58.423Z,15.29
2022-09-20T02:38:52.871Z,15.28
2022-09-20T02:41:57.412Z,15.27
2022-09-20T02:44:46.034Z,15.26
2022-09-20T02:47:38.401Z,15.24
2022-09-20T02:50:35.494Z,15.22
2022-09-20T02:53:30.271Z,15.20
2022-09-20T02:56:18.732Z,15.16
2022-09-20T02:59:01.899Z,15.13
2022-09-20T03:01:45.303Z,15.09
2022-09-20T03:04:31.482Z,15.02
2022-09-20T03:07:20.474Z,14.99
2022-09-20T03:10:05.411Z,14.97
2022-09-20T03:12:51.300Z,14.96
2022-09-20T03:15:50.149Z,14.95
2022-09-20T03:18:27.203Z,14.95
2022-09-20T03:21:02.843Z,14.94
2022-09-20T03:23:47.334Z,14.92
2022-09-20T03:26:41.448Z,14.90
2022-09-20T03:29:16.774Z,14.88
2022-09-20T03:32:13.795Z,14.85
2022-09-20T03:35:08.395Z,14.83
2022-09-20T03:38:04.135Z,14.80
2022-09-20T03:40:58.926Z,14.79
2022-09-20T03:43:38.013Z,14.77
2022-09-20T03:46:23.201Z,14.76
2022-09-20T03:49:05.308Z,14.75
2022-09-20T03:51:57.242Z,14.74
2022-09-20T03:55:07.296Z,14.72
2022-09-20T03:57:59.531Z,14.72
2022-09-20T04:00:53.280Z,14.70
2022-09-20T04:03:50.947Z,14.67
2022-09-20T04:06:45.835Z,14.65
2022-09-20T04:10:09.879Z,14.60
2022-09-20T04:13:13.958Z,14.56
2022-09-20T04:16:19.558Z,14.51
2022-09-20T04:19:04.456Z,14.46
2022-09-20T04:21:43.830Z,14.41
2022-09-20T04:24:34.533Z,14.35
2022-09-20T04:27:10.783Z,14.29
2022-09-20T04:29:53.350Z,14.24
2022-09-20T04:32:20.126Z,14.18
2022-09-20T04:35:12.725Z,14.17
2022-09-20T04:37:43.646Z,14.13
2022-09-20T04:40:30.092Z,14.09
2022-09-20T04:43:33.560Z,14.06
2022-09-20T04:46:24.812Z,14.02
2022-09-20T04:49:06.586Z,14.00
2022-09-20T04:52:07.264Z,13.96
2022-09-20T04:54:48.838Z,13.91
2022-09-20T04:57:37.114Z,13.88
2022-09-20T05:00:14.908Z,13.85
2022-09-20T05:03:19.462Z,13.81
2022-09-20T05:06:14.457Z,13.79
2022-09-20T05:09:08.767Z,13.76
2022-09-20T05:11:53.866Z,13.73
2022-09-20T05:14:42.011Z,13.69
2022-09-20T05:17:48.512Z,13.63
2022-09-20T05:20:30.413Z,13.56
2022-09-20T05:23:34.431Z,13.51
2022-09-20T05:26:15.147Z,13.46
2022-09-20T05:29:01.741Z,13.41
2022-09-20T05:31:38.466Z,13.38
2022-09-20T05:34:42.538Z,13.34
2022-09-20T05:37:43.314Z,13.30
2022-09-20T05:40:26.972Z,13.27
2022-09-20T05:42:57.295Z,13.23
2022-09-20T05:45:46.025Z,13.20
2022-09-20T05:48:18.597Z,13.18
2022-09-20T05:51:06.624Z,13.16
2022-09-20T05:53:42.322Z,13.13
2022-09-20T05:56:27.800Z,13.10
2022-09-20T05:59:19.447Z,13.07
2022-09-20T06:02:07.605Z,13.04
2022-09-20T06:04:45.662Z,12.99
2022-09-20T06:07:30.156Z,12.95
2022-09-20T06:10:13.407Z,12.91
2022-09-20T06:12:55.371Z,12.87
2022-09-20T06:15:56.301Z,12.83
2022-09-20T06:18:29.568Z,12.81
2022-09-20T06:21:23.085Z,12.77
2022-09-20T06:23:49.779Z,12.78
2022-09-20T06:26:27.440Z,12.76
2022-09-20T06:28:59.587Z,12.77
2022-09-20T06:31:27.571Z,12.78
2022-09-20T06:34:03.408Z,12.81
2022-09-20T06:37:13.279Z,12.87
2022-09-20T06:40:21.192Z,12.93
2022-09-20T06:42:47.954Z,12.99
2022-09-20T06:45:14.599Z,13.05
2022-09-20T06:47:41.314Z,13.11
2022-09-20T06:50:16.589Z,13.16
2022-09-20T06:52:45.195Z,13.17
2022-09-20T06:55:24.061Z,13.18
2022-09-20T06:57:53.084Z,13.21
2022-09-20T07:00:19.896Z,13.22
2022-09-20T07:02:47.202Z,13.24
2022-09-20T07:05:17.856Z,13.25
2022-09-20T07:07:45.027Z,13.28
2022-09-20T07:10:12.399Z,13.30
2022-09-20T07:12:39.367Z,13.32
2022-09-20T07:15:07.338Z,13.37
2022-09-20T07:17:34.258Z,13.37
2022-09-20T07:20:01.130Z,13.41
2022-09-20T07:22:28.195Z,13.43
2022-09-20T07:24:55.299Z,13.47
2022-09-20T07:27:22.469Z,13.55
2022-09-20T07:29:50.717Z,13.68
2022-09-20T07:32:18.057Z,13.85
2022-09-20T07:34:44.811Z,14.08
2022-09-20T07:37:11.765Z,14.30
2022-09-20T07:39:38.499Z,14.55
2022-09-20T07:42:06.850Z,14.82
2022-09-20T07:44:33.673Z,15.08
2022-09-20T07:47:01.151Z,15.28
2022-09-20T07:49:32.465Z,15.45
2022-09-20T07:51:59.515Z,15.51
2022-09-20T07:54:27.756Z,15.54
2022-09-20T07:56:54.908Z,15.60
2022-09-20T07:59:21.661Z,15.66
2022-09-20T08:01:48.442Z,15.74
2022-09-20T08:04:15.552Z,15.83
2022-09-20T08:06:45.906Z,15.93
2022-09-20T08:09:13.855Z,16.03
2022-09-20T08:11:42.244Z,16.16
2022-09-20T08:14:14.089Z,16.29
2022-09-20T08:16:42.982Z,16.42
2022-09-20T08:19:23.607Z,16.52
2022-09-20T08:21:53.899Z,16.60
2022-09-20T08:24:20.766Z,16.63
2022-09-20T08:26:48.945Z,16.61
2022-09-20T08:29:15.839Z,16.58
2022-09-20T08:31:45.281Z,16.52
2022-09-20T08:34:15.214Z,16.50
2022-09-20T08:36:47.805Z,16.49
2022-09-20T08:42:11.298Z,16.52
2022-09-20T08:44:59.366Z,16.57
2022-09-20T08:47:28.142Z,16.68
2022-09-20T08:49:57.436Z,16.78
2022-09-20T08:52:36.950Z,16.85
2022-09-20T08:55:13.642Z,16.89
2022-09-20T08:57:40.509Z,17.02
2022-09-20T09:00:07.847Z,17.31
2022-09-20T09:02:34.579Z,17.51
2022-09-20T09:05:03.738Z,17.67
2022-09-20T09:07:30.801Z,17.81
2022-09-20T09:09:57.458Z,17.93
2022-09-20T09:12:27.863Z,17.93
2022-09-20T09:15:00.258Z,17.91
2022-09-20T09:17:31.184Z,17.85
2022-09-20T09:20:17.581Z,17.75
2022-09-20T09:22:46.391Z,17.72
2022-09-20T09:25:18.725Z,17.66
2022-09-20T09:27:59.049Z,17.63
2022-09-20T09:30:26.476Z,17.61
2022-09-20T09:33:14.440Z,17.60
2022-09-20T09:35:41.921Z,17.60
2022-09-20T09:38:18.160Z,17.63
2022-09-20T09:41:26.487Z,17.75
2022-09-20T09:44:02.148Z,17.87
2022-09-20T09:46:34.317Z,17.90
2022-09-20T09:49:10.590Z,17.95
2022-09-20T09:51:38.844Z,18.05
2022-09-20T09:54:07.865Z,18.15
2022-09-20T09:57:00.976Z,18.24
2022-09-20T09:59:40.439Z,18.37
2022-09-20T10:02:41.196Z,18.48
2022-09-20T10:05:22.600Z,18.53
2022-09-20T10:07:55.254Z,18.69
2022-09-20T10:10:29.736Z,18.78
2022-09-20T10:13:06.743Z,18.86
2022-09-20T10:15:45.633Z,19.07
2022-09-20T10:18:25.990Z,19.21
2022-09-20T10:21:26.374Z,19.26
2022-09-20T10:24:03.555Z,19.36
2022-09-20T10:26:40.068Z,19.48
2022-09-20T10:29:15.835Z,19.54
2022-09-20T10:31:49.189Z,19.56
2022-09-20T10:34:39.319Z,19.59
2022-09-20T10:37:15.919Z,19.66
2022-09-20T10:39:46.011Z,19.68
2022-09-20T10:42:58.319Z,19.64
2022-09-20T10:48:52.628Z,19.83
2022-09-20T10:51:27.381Z,20.15
2022-09-20T10:54:34.597Z,20.35
2022-09-20T10:57:31.978Z,20.60
2022-09-20T11:00:22.429Z,20.95
2022-09-20T11:03:13.874Z,21.14
2022-09-20T11:05:53.844Z,21.22
2022-09-20T11:08:27.155Z,21.27
2022-09-20T11:10:59.119Z,21.26
2022-09-20T11:13:40.691Z,21.24
2022-09-20T11:16:14.541Z,21.47
2022-09-20T11:18:59.186Z,21.74
2022-09-20T11:21:34.834Z,22.70
2022-09-20T11:24:31.147Z,23.41
2022-09-20T11:27:23.093Z,24.05
2022-09-20T11:30:02.802Z,24.10
2022-09-20T11:32:37.636Z,24.16
2022-09-20T11:35:16.403Z,23.99
2022-09-20T11:37:50.613Z,23.23
2022-09-20T11:40:41.317Z,22.61
2022-09-20T11:43:10.012Z,22.23
2022-09-20T11:45:40.668Z,21.80
2022-09-20T11:48:18.480Z,21.30
2022-09-20T11:51:08.910Z,20.99
2022-09-20T11:53:57.476Z,20.89
2022-09-20T11:56:34.593Z,20.91
2022-09-20T11:59:04.270Z,21.02
2022-09-20T12:01:43.559Z,21.23
2022-09-20T12:04:32.966Z,21.44
2022-09-20T12:07:38.186Z,21.80
2022-09-20T12:10:25.321Z,22.15
2022-09-20T12:13:05.720Z,22.59
2022-09-20T12:15:36.311Z,22.92
2022-09-20T12:18:09.426Z,22.89
2022-09-20T12:20:36.529Z,22.92
2022-09-20T12:23:40.624Z,22.95
2022-09-20T12:26:13.685Z,22.76
2022-09-20T12:29:01.228Z,22.39
2022-09-20T12:31:33.857Z,22.18
2022-09-20T12:34:18.086Z,22.05
2022-09-20T12:36:52.202Z,21.78
2022-09-20T12:39:29.501Z,21.54
2022-09-20T12:42:03.264Z,21.26
2022-09-20T12:44:59.024Z,21.05
2022-09-20T12:47:29.779Z,20.93
2022-09-20T12:50:16.846Z,21.02
2022-09-20T12:53:04.059Z,23.35
2022-09-20T12:55:46.195Z,23.87
2022-09-20T12:58:15.827Z,23.38
2022-09-20T13:00:47.047Z,23.39
2022-09-20T13:03:25.174Z,23.12
2022-09-20T13:06:14.986Z,23.00
2022-09-20T13:09:00.490Z,23.64
2022-09-20T13:11:44.495Z,24.74
2022-09-20T13:14:16.553Z,25.11
2022-09-20T13:16:59.065Z,25.24
2022-09-20T13:19:51.402Z,25.45
2022-09-20T13:22:24.564Z,28.10
2022-09-20T13:24:57.204Z,29.22
2022-09-20T13:27:34.677Z,27.75
2022-09-20T13:30:10.596Z,28.03
2022-09-20T13:32:41.703Z,28.62
2022-09-20T13:35:25.141Z,28.39
2022-09-20T13:37:59.481Z,26.84
2022-09-20T13:40:38.795Z,25.87
2022-09-20T13:44:05.264Z,24.97
2022-09-20T13:47:31.814Z,25.83
2022-09-20T13:55:05.834Z,30.03
2022-09-20T13:58:32.246Z,30.59
2022-09-20T14:02:17.175Z,33.25
2022-09-20T14:05:43.620Z,31.64
2022-09-20T14:09:17.373Z,32.00
2022-09-20T14:12:43.879Z,32.97
2022-09-20T14:16:16.314Z,32.70
2022-09-20T14:23:25.461Z,28.04
2022-09-20T14:26:16.166Z,26.38
2022-09-20T14:28:44.945Z,28.37
2022-09-20T14:31:34.879Z,27.35
2022-09-20T14:34:04.879Z,27.41
2022-09-20T14:36:31.799Z,26.98
2022-09-20T14:39:03.028Z,25.77
2022-09-20T14:41:39.477Z,24.61
2022-09-20T14:44:21.515Z,23.96
2022-09-20T14:46:48.412Z,26.16
2022-09-20T14:49:21.220Z,25.58
2022-09-20T14:51:48.789Z,25.03
2022-09-20T14:54:26.250Z,29.20
2022-09-20T14:56:57.925Z,27.54
2022-09-20T14:59:35.596Z,26.08
2022-09-20T15:02:08.933Z,25.16
2022-09-20T15:04:37.998Z,26.57
2022-09-20T15:07:07.265Z,25.47
2022-09-20T15:09:35.468Z,24.90
2022-09-20T15:12:18.641Z,24.11
2022-09-20T15:14:46.343Z,25.52
2022-09-20T15:17:18.826Z,25.27
2022-09-20T15:19:47.738Z,27.88
2022-09-20T15:22:14.907Z,30.40
2022-09-20T15:24:43.564Z,32.17
2022-09-20T15:27:12.637Z,33.63
2022-09-20T15:29:39.652Z,34.09
2022-09-20T15:32:06.802Z,33.91
2022-09-20T15:34:33.671Z,33.12
2022-09-20T15:37:00.421Z,33.66
2022-09-20T15:39:28.003Z,34.86
2022-09-20T15:41:54.940Z,35.69
2022-09-20T15:44:22.007Z,36.72
2022-09-20T15:46:51.034Z,35.27
2022-09-20T15:49:18.061Z,32.12
2022-09-20T15:51:46.376Z,29.38
2022-09-20T15:54:14.777Z,27.37
2022-09-20T15:56:42.112Z,25.81
2022-09-20T15:59:11.182Z,24.69
2022-09-20T16:01:45.863Z,23.81
2022-09-20T16:04:15.519Z,23.25
2022-09-20T16:06:44.340Z,23.02
2022-09-20T16:09:11.074Z,22.78
2022-09-20T16:11:38.881Z,22.57
2022-09-20T16:14:05.810Z,22.37
2022-09-20T16:16:39.629Z,22.08
2022-09-20T16:19:21.060Z,21.94
2022-09-20T16:21:58.331Z,21.85
2022-09-20T16:24:30.563Z,21.96
2022-09-20T16:26:58.570Z,22.70
2022-09-20T16:29:26.095Z,22.78
2022-09-20T16:31:54.636Z,22.63
2022-09-20T16:34:32.302Z,22.50
2022-09-20T16:37:02.307Z,22.37
2022-09-20T16:39:30.667Z,22.26
2022-09-20T16:42:04.030Z,22.19
2022-09-20T16:44:42.138Z,22.05
2022-09-20T16:47:13.153Z,21.95
2022-09-20T16:49:39.919Z,21.87
2022-09-20T16:52:08.765Z,21.88
2022-09-20T16:54:35.932Z,21.95
2022-09-20T16:57:02.704Z,21.96
2022-09-20T16:59:29.551Z,21.93
2022-09-20T17:01:56.497Z,21.87
2022-09-20T17:04:23.303Z,21.78
2022-09-20T17:06:51.366Z,21.61
2022-09-20T17:09:18.408Z,21.45
2022-09-20T17:11:47.919Z,21.29
2022-09-20T17:14:17.193Z,21.13
2022-09-20T17:16:48.141Z,21.04
2022-09-20T17:19:18.556Z,20.93
2022-09-20T17:21:51.616Z,20.97
2022-09-20T17:24:22.725Z,20.99
2022-09-20T17:26:50.831Z,21.04
2022-09-20T17:29:19.732Z,20.95
2022-09-20T17:31:55.743Z,20.90
2022-09-20T17:34:25.623Z,20.83
2022-09-20T17:36:54.207Z,20.78
2022-09-20T17:39:20.950Z,20.66
2022-09-20T17:41:49.639Z,20.50
2022-09-20T17:44:16.903Z,20.35
2022-09-20T17:46:50.083Z,20.19
2022-09-20T17:49:22.616Z,20.02
2022-09-20T17:51:53.397Z,19.83
2022-09-20T17:54:20.912Z,19.73
2022-09-20T17:56:50.539Z,19.64
2022-09-20T17:59:18.906Z,19.49
2022-09-20T18:01:47.611Z,19.40
2022-09-20T18:04:14.655Z,19.31
2022-09-20T18:06:45.765Z,19.27
2022-09-20T18:09:15.703Z,19.19
2022-09-20T18:11:50.668Z,19.10
2022-09-20T18:14:20.197Z,19.01
2022-09-20T18:16:47.730Z,18.95
2022-09-20T18:19:16.238Z,18.89
2022-09-20T18:21:43.723Z,18.83
2022-09-20T18:24:11.545Z,18.76
2022-09-20T18:26:38.784Z,18.74
2022-09-20T18:29:13.049Z,18.71
2022-09-20T18:31:46.598Z,18.70
2022-09-20T18:34:19.034Z,18.68
2022-09-20T18:36:53.074Z,18.68
2022-09-20T18:39:22.026Z,18.66
2022-09-20T18:41:50.547Z,18.61
2022-09-20T18:44:18.640Z,18.61
2022-09-20T18:46:46.801Z,18.63
2022-09-20T18:49:16.337Z,18.64
2022-09-20T18:51:44.514Z,18.64
2022-09-20T18:54:12.508Z,18.66
2022-09-20T18:56:44.088Z,18.66
2022-09-20T18:59:22.254Z,18.62
2022-09-20T19:01:58.007Z,18.60
2022-09-20T19:04:46.736Z,18.59
2022-09-20T19:07:28.429Z,18.55
2022-09-20T19:10:22.958Z,18.50
2022-09-20T19:13:10.593Z,18.44
2022-09-20T19:15:42.086Z,18.40
2022-09-20T19:18:35.767Z,18.33
2022-09-20T19:21:21.881Z,18.25
2022-09-20T19:24:13.146Z,18.16
2022-09-20T19:26:41.031Z,18.07
2022-09-20T19:29:26.874Z,18.00
2022-09-20T19:31:56.364Z,17.90
2022-09-20T19:34:26.316Z,17.83
2022-09-20T19:37:37.354Z,17.76
2022-09-20T19:40:25.310Z,17.67
2022-09-20T19:43:23.963Z,17.62
2022-09-20T19:46:08.121Z,17.55
2022-09-20T19:48:40.547Z,17.47
2022-09-20T19:51:12.345Z,17.42
2022-09-20T19:53:39.685Z,17.38
2022-09-20T19:57:27.449Z,17.30
2022-09-20T20:04:37.049Z,17.20
2022-09-20T20:08:05.235Z,17.17
2022-09-20T20:11:18.281Z,17.12
2022-09-20T20:14:24.874Z,17.03
2022-09-20T20:17:17.584Z,17.00
2022-09-20T20:20:36.403Z,16.94
2022-09-20T20:23:55.287Z,16.87
2022-09-20T20:27:21.740Z,16.81
2022-09-20T20:30:48.508Z,16.72
2022-09-20T20:34:15.079Z,16.65
2022-09-20T20:41:49.196Z,16.53
2022-09-20T20:45:15.728Z,16.49
2022-09-20T20:52:25.234Z,16.40
2022-09-20T20:55:51.716Z,16.33
2022-09-20T20:59:21.182Z,16.27
2022-09-20T21:02:47.683Z,16.24
2022-09-20T21:10:08.475Z,16.15
2022-09-20T21:13:34.913Z,16.13
2022-09-20T21:21:00.123Z,16.06
2022-09-20T21:24:26.535Z,16.02
2022-09-20T21:27:35.553Z,16.00
2022-09-20T21:31:05.008Z,15.99
2022-09-20T21:38:25.686Z,15.96
2022-09-20T21:41:33.317Z,15.94
2022-09-20T21:44:59.814Z,15.91
2022-09-20T21:48:26.397Z,15.88
2022-09-20T22:35:56.988Z,15.76
2022-09-20T22:38:23.678Z,15.78
2022-09-20T22:40:54.949Z,15.81
2022-09-20T22:43:22.732Z,15.82
2022-09-20T22:45:49.446Z,15.80
2022-09-20T22:48:16.237Z,15.79
2022-09-20T22:50:43.389Z,15.77
2022-09-20T22:53:10.265Z,15.65
2022-09-20T22:55:37.268Z,15.52
2022-09-20T22:58:04.203Z,15.44
2022-09-20T23:00:30.981Z,15.36
2022-09-20T23:02:58.992Z,15.35
2022-09-20T23:05:27.038Z,15.37
2022-09-20T23:07:53.780Z,15.41
2022-09-20T23:10:20.648Z,15.41
2022-09-20T23:12:50.738Z,15.43
2022-09-20T23:15:17.412Z,15.44
2022-09-20T23:17:44.161Z,15.45
2022-09-20T23:20:11.129Z,15.46
2022-09-20T23:22:37.820Z,15.46
2022-09-20T23:25:04.813Z,15.41
2022-09-20T23:27:31.735Z,15.35
2022-09-20T23:29:58.415Z,15.34
2022-09-20T23:32:25.959Z,15.32
2022-09-20T23:34:53.055Z,15.31
2022-09-20T23:37:19.765Z,15.31
2022-09-20T23:39:46.608Z,15.32
2022-09-20T23:42:13.627Z,15.35
2022-09-20T23:44:40.306Z,15.40
2022-09-20T23:47:06.967Z,15.42
2022-09-20T23:49:34.030Z,15.45
2022-09-20T23:52:00.888Z,15.48
2022-09-20T23:54:27.735Z,15.49
2022-09-20T23:56:54.554Z,15.49
2022-09-20T23:59:21.254Z,15.49
